KROS

Rush City Regional Airport

Rush City, Minnesota, USA
METAR KROS 100616Z AUTO 21003KT 7SM CLR M09/M10 A3022 RMK AO2 T10931105
Observed Flight Rules
Dec-10 @ 06:16 UTC (12 minutes ago) Visual Flight Rules
Wind Visibility Clouds
210° at 3 knots 7 miles
  • Clear skies
Temperatures Readings
Current -9°C / 16°F
Dewpoint -11°C / 12°F
Humidity 86%
Altimeter 30.22" Hg
Pressure 1023 hPa
Elevation 281
METAR KROS 100616Z AUTO 21003KT 7SM CLR M09/M10 A3022 RMK AO2 T10931105
Observed Flight Rules
Dec-10 @ 06:16 UTC
(12 minutes ago)
VFR
Wind Visibility
210° at 3 knots 7 miles
Clouds
  • Clear skies
Temperature Dewpoint
-9°C / 16°F -11°C / 12°F
Humidity Altimeter Pressure
86% 30.22" Hg 1023 hPa